Terminal Aerodrome Forecast
Issued by NWS Wilmington, OH

Current Version | Previous Version | Text Only | Print | Product List | Glossary Off
Versions: 1 2 3 4 5 6 7 8 9 10 11 12 13 14 15 16 17 18 19 20 21 22 23 24

000
FTUS41 KILN 251100
TAFCVG
TAF
KCVG 251139Z 2512/2618 18007KT P6SM OVC120
     FM251500 15007KT P6SM VCSH OVC050
     FM251800 12006KT 5SM -RA BR SCT015 OVC040
     FM252300 05008KT 2SM -RA OVC008
     FM260400 01011G21KT 1SM -SN OVC008
     FM260600 36015G22KT 3SM -SN OVC025
      TEMPO 2606/2609 OVC015
     FM261200 34012KT P6SM OVC025=

USA.gov is the U.S. government's official web portal to all federal, state and local government web resources and services.